Time;durP1;ratioP1;P1;durP2;ratioP2;P2;SDS_P1;SDS_P2;PMS_P1;PMS_P2;Temp;Humidity;BMP_temperature;BMP_pressure;BME280_temperature;BME280_humidity;BME280_pressure;Samples;Min_cycle;Max_cycle;Signal;HPM_P1;HPM_P2
2023/08/11 00:02:18;;;;;;;29.43;21.57;;;;;;;;;;5047722;28;20047;-62
2023/08/11 00:04:44;;;;;;;28.93;22.03;;;;;;;;;;5047044;28;20064;-61
2023/08/11 00:07:10;;;;;;;31.47;24.00;;;;;;;;;;5047901;28;20045;-62
2023/08/11 00:09:36;;;;;;;32.03;25.37;;;;;;;;;;5064882;28;20118;-62
2023/08/11 00:12:02;;;;;;;33.80;22.83;;;;;;;;;;5055511;28;20513;-61
2023/08/11 00:14:28;;;;;;;35.27;25.90;;;;;;;;;;5051353;28;20102;-62
2023/08/11 00:16:56;;;;;;;29.73;23.23;;;;;;;;;;5051656;28;20041;-62
2023/08/11 00:19:22;;;;;;;32.20;24.47;;;;;;;;;;5051465;28;20490;-62
2023/08/11 00:21:48;;;;;;;29.33;22.17;;;;;;;;;;5051474;28;20503;-62
2023/08/11 00:24:14;;;;;;;33.03;24.10;;;;;;;;;;5051229;28;20033;-62
2023/08/11 00:26:40;;;;;;;35.80;26.50;;;;;;;;;;5051159;28;20045;-62
2023/08/11 00:29:06;;;;;;;35.20;27.00;;;;;;;;;;5051153;28;20155;-61
2023/08/11 00:31:32;;;;;;;36.70;26.53;;;;;;;;;;5051668;28;20166;-62
2023/08/11 00:33:58;;;;;;;35.20;27.67;;;;;;;;;;5051216;28;20053;-62
2023/08/11 00:36:24;;;;;;;34.77;26.50;;;;;;;;;;5051268;28;20552;-62
2023/08/11 00:38:50;;;;;;;39.03;27.37;;;;;;;;;;5050574;28;20059;-62
2023/08/11 00:41:16;;;;;;;41.83;28.83;;;;;;;;;;5050992;28;20049;-62
2023/08/11 00:43:42;;;;;;;39.77;31.10;;;;;;;;;;5056945;28;20153;-62
2023/08/11 00:46:11;;;;;;;38.63;29.53;;;;;;;;;;5071040;28;20128;-62
2023/08/11 00:48:43;;;;;;;44.73;32.23;;;;;;;;;;5070868;28;20562;-62
2023/08/11 00:51:10;;;;;;;46.57;33.73;;;;;;;;;;5069680;28;20050;-62
2023/08/11 00:53:36;;;;;;;43.07;33.77;;;;;;;;;;5063540;28;20975;-62
2023/08/11 00:56:03;;;;;;;45.63;35.57;;;;;;;;;;5050684;28;20560;-62
2023/08/11 00:58:30;;;;;;;42.93;34.03;;;;;;;;;;5056223;28;20036;-62
2023/08/11 01:00:57;;;;;;;48.13;36.80;;;;;;;;;;5070767;28;20502;-62
2023/08/11 01:03:23;;;;;;;48.90;35.87;;;;;;;;;;5070239;28;20131;-62
2023/08/11 01:05:54;;;;;;;48.00;35.33;;;;;;;;;;5070097;28;20597;-62
2023/08/11 01:08:43;;;;;;;49.40;37.37;;;;;;;;;;5070615;28;20056;-62
2023/08/11 01:11:18;;;;;;;52.00;38.90;;;;;;;;;;5056432;28;20045;-61
2023/08/11 01:13:48;;;;;;;52.00;38.47;;;;;;;;;;5050893;28;20048;-62
2023/08/11 01:16:16;;;;;;;53.10;38.13;;;;;;;;;;5050249;28;20045;-62
2023/08/11 01:18:42;;;;;;;52.47;40.50;;;;;;;;;;5058105;28;20056;-62
2023/08/11 01:21:12;;;;;;;47.60;38.13;;;;;;;;;;5070618;28;20090;-62
2023/08/11 01:23:40;;;;;;;47.70;38.40;;;;;;;;;;5070798;28;20048;-61
2023/08/11 01:26:06;;;;;;;47.47;37.93;;;;;;;;;;5070596;28;20110;-62
2023/08/11 01:28:36;;;;;;;50.63;39.90;;;;;;;;;;5070234;28;20090;-62
2023/08/11 01:31:03;;;;;;;49.43;38.87;;;;;;;;;;5071531;28;20129;-62
2023/08/11 01:33:29;;;;;;;50.17;39.47;;;;;;;;;;5070516;28;20051;-62
2023/08/11 01:35:55;;;;;;;54.33;41.60;;;;;;;;;;5055723;28;20382;-62
2023/08/11 01:38:21;;;;;;;49.27;38.50;;;;;;;;;;5050064;28;20041;-62
2023/08/11 01:40:47;;;;;;;55.23;41.37;;;;;;;;;;5049833;28;20068;-62
2023/08/11 01:43:15;;;;;;;57.23;42.47;;;;;;;;;;5050101;28;20049;-62
2023/08/11 01:45:43;;;;;;;52.17;39.27;;;;;;;;;;5050353;28;20103;-61
2023/08/11 01:48:09;;;;;;;49.63;39.13;;;;;;;;;;5050356;28;20155;-62
2023/08/11 01:50:35;;;;;;;48.47;38.43;;;;;;;;;;5050129;28;20108;-62
2023/08/11 01:53:02;;;;;;;53.43;40.53;;;;;;;;;;5049992;28;20052;-62
2023/08/11 01:55:29;;;;;;;51.70;37.87;;;;;;;;;;5049283;28;20100;-62
2023/08/11 01:57:55;;;;;;;50.50;41.43;;;;;;;;;;5049551;28;20088;-62
2023/08/11 02:00:21;;;;;;;45.90;36.20;;;;;;;;;;5050004;28;20064;-62
2023/08/11 02:02:48;;;;;;;47.50;34.90;;;;;;;;;;5050035;28;20041;-62
2023/08/11 02:05:17;;;;;;;53.77;40.43;;;;;;;;;;5048846;28;20041;-62
2023/08/11 02:07:44;;;;;;;42.73;34.97;;;;;;;;;;5049370;28;20049;-62
2023/08/11 02:10:11;;;;;;;48.30;36.43;;;;;;;;;;5050222;28;20053;-62
2023/08/11 02:12:38;;;;;;;49.43;35.40;;;;;;;;;;5069652;28;20052;-62
2023/08/11 02:15:07;;;;;;;44.27;34.60;;;;;;;;;;5069792;28;20040;-62
2023/08/11 02:17:34;;;;;;;45.47;35.60;;;;;;;;;;5069446;28;20047;-62
2023/08/11 02:20:08;;;;;;;47.33;35.40;;;;;;;;;;5069386;28;20076;-61
2023/08/11 02:22:35;;;;;;;44.50;36.03;;;;;;;;;;5068802;28;20494;-62
2023/08/11 02:25:01;;;;;;;48.27;37.23;;;;;;;;;;5054796;28;20045;-62
2023/08/11 02:27:27;;;;;;;45.97;35.97;;;;;;;;;;5049205;28;20037;-61
2023/08/11 02:29:54;;;;;;;41.47;34.07;;;;;;;;;;5048605;28;20053;-62
2023/08/11 02:32:20;;;;;;;41.00;34.23;;;;;;;;;;5049005;28;20045;-62
2023/08/11 02:34:46;;;;;;;39.70;33.20;;;;;;;;;;5050737;28;20060;-62
2023/08/11 02:37:12;;;;;;;52.67;36.70;;;;;;;;;;5061871;28;20092;-62
2023/08/11 02:39:38;;;;;;;46.07;30.07;;;;;;;;;;5048687;28;20053;-62
2023/08/11 02:42:04;;;;;;;43.67;33.60;;;;;;;;;;5049261;28;20049;-62
2023/08/11 02:44:30;;;;;;;41.80;30.47;;;;;;;;;;5049393;28;20048;-62
2023/08/11 02:46:56;;;;;;;35.23;28.73;;;;;;;;;;5048296;28;20483;-62
2023/08/11 02:49:22;;;;;;;37.23;30.50;;;;;;;;;;5048797;28;20053;-62
2023/08/11 02:51:48;;;;;;;37.03;30.43;;;;;;;;;;5048946;28;20491;-62
2023/08/11 02:54:14;;;;;;;37.17;29.20;;;;;;;;;;5048482;28;20048;-62
2023/08/11 02:56:47;;;;;;;39.00;30.63;;;;;;;;;;5048861;28;20053;-62
2023/08/11 02:59:13;;;;;;;34.78;28.23;;;;;;;;;;5048031;28;20048;-62
2023/08/11 03:01:40;;;;;;;37.30;30.33;;;;;;;;;;5048986;28;20106;-62
2023/08/11 03:04:06;;;;;;;37.77;29.50;;;;;;;;;;5049460;28;20710;-62
2023/08/11 03:06:32;;;;;;;38.03;30.40;;;;;;;;;;5068555;28;20052;-62
2023/08/11 03:08:58;;;;;;;41.87;30.87;;;;;;;;;;5068640;28;20049;-62
2023/08/11 03:11:24;;;;;;;35.27;28.57;;;;;;;;;;5068397;28;20044;-61
2023/08/11 03:13:50;;;;;;;41.60;30.20;;;;;;;;;;5067501;28;20032;-62
2023/08/11 03:16:17;;;;;;;41.30;31.40;;;;;;;;;;5068012;28;20052;-62
2023/08/11 03:18:43;;;;;;;34.37;28.63;;;;;;;;;;5068182;28;20422;-62
2023/08/11 03:21:09;;;;;;;33.13;28.90;;;;;;;;;;5068326;28;20045;-61
2023/08/11 03:23:35;;;;;;;45.30;30.80;;;;;;;;;;5067574;28;20175;-62
2023/08/11 03:26:01;;;;;;;39.13;31.47;;;;;;;;;;5066916;28;20059;-62
2023/08/11 03:28:27;;;;;;;37.97;29.33;;;;;;;;;;5068715;28;20052;-62
2023/08/11 03:30:53;;;;;;;39.77;26.80;;;;;;;;;;5068346;28;20095;-62
2023/08/11 03:33:19;;;;;;;45.60;32.23;;;;;;;;;;5067553;28;20048;-62
2023/08/11 03:35:46;;;;;;;33.67;27.77;;;;;;;;;;5068377;28;20068;-61
2023/08/11 03:38:12;;;;;;;37.73;29.37;;;;;;;;;;5068195;28;20060;-62
2023/08/11 03:40:38;;;;;;;30.97;26.07;;;;;;;;;;5067093;28;20517;-62
2023/08/11 03:43:04;;;;;;;37.90;29.83;;;;;;;;;;5067855;28;20056;-62
2023/08/11 03:45:30;;;;;;;36.27;27.73;;;;;;;;;;5068141;28;20521;-61
2023/08/11 03:47:56;;;;;;;37.73;27.47;;;;;;;;;;5067666;28;20044;-62
2023/08/11 03:50:22;;;;;;;36.83;28.37;;;;;;;;;;5058076;28;20049;-62
2023/08/11 03:52:48;;;;;;;38.93;27.77;;;;;;;;;;5048379;28;20041;-61
2023/08/11 03:55:14;;;;;;;36.53;28.40;;;;;;;;;;5050916;28;20150;-62
2023/08/11 03:57:40;;;;;;;31.87;24.90;;;;;;;;;;5057625;28;20134;-62
2023/08/11 04:00:09;;;;;;;37.60;26.73;;;;;;;;;;5047793;28;20049;-62
2023/08/11 04:02:36;;;;;;;33.53;26.77;;;;;;;;;;5047753;28;20049;-62
2023/08/11 04:05:02;;;;;;;31.77;25.53;;;;;;;;;;5047833;28;20041;-61
2023/08/11 04:07:28;;;;;;;36.33;25.83;;;;;;;;;;5047852;28;20795;-62
2023/08/11 04:09:54;;;;;;;35.53;25.77;;;;;;;;;;5048383;28;20049;-62
2023/08/11 04:12:20;;;;;;;33.17;23.67;;;;;;;;;;5047645;28;20080;-62
2023/08/11 04:14:46;;;;;;;37.33;26.13;;;;;;;;;;5047989;28;20079;-62
2023/08/11 04:17:16;;;;;;;42.10;27.27;;;;;;;;;;5047337;28;20403;-62
2023/08/11 04:19:42;;;;;;;33.13;23.90;;;;;;;;;;5047463;28;20504;-62
2023/08/11 04:22:08;;;;;;;33.83;23.50;;;;;;;;;;5047227;28;20804;-62
2023/08/11 04:24:35;;;;;;;34.67;23.47;;;;;;;;;;5047840;28;20537;-62
2023/08/11 04:27:01;;;;;;;36.23;24.83;;;;;;;;;;5047284;28;20110;-62
2023/08/11 04:29:27;;;;;;;35.73;24.90;;;;;;;;;;5046837;28;20049;-62
2023/08/11 04:31:53;;;;;;;30.17;23.00;;;;;;;;;;5046934;28;20041;-62
2023/08/11 04:34:19;;;;;;;29.03;22.17;;;;;;;;;;5046952;28;20051;-62
2023/08/11 04:36:46;;;;;;;28.07;21.63;;;;;;;;;;5047199;28;20041;-62
2023/08/11 04:39:12;;;;;;;24.70;19.90;;;;;;;;;;5057307;28;20174;-62
2023/08/11 04:41:38;;;;;;;27.93;20.80;;;;;;;;;;5066568;28;20079;-62
2023/08/11 04:44:04;;;;;;;26.53;20.67;;;;;;;;;;5048656;28;20049;-62
2023/08/11 04:46:31;;;;;;;27.90;20.60;;;;;;;;;;5047428;28;20045;-62
2023/08/11 04:48:57;;;;;;;27.70;19.43;;;;;;;;;;5046584;28;20041;-62
2023/08/11 04:51:23;;;;;;;25.17;19.00;;;;;;;;;;5049772;28;20039;-62
2023/08/11 04:53:49;;;;;;;20.80;17.33;;;;;;;;;;5068132;28;20483;-62
2023/08/11 04:56:16;;;;;;;39.43;20.27;;;;;;;;;;5070804;28;20053;-62
2023/08/11 04:58:42;;;;;;;24.97;19.90;;;;;;;;;;5070642;28;20052;-62
2023/08/11 05:01:07;;;;;;;24.40;19.00;;;;;;;;;;5071241;28;20439;-62
2023/08/11 05:03:34;;;;;;;24.70;19.47;;;;;;;;;;5070642;28;20045;-62
2023/08/11 05:06:00;;;;;;;23.33;17.90;;;;;;;;;;5070206;28;20103;-62
2023/08/11 05:08:26;;;;;;;21.45;17.75;;;;;;;;;;5068949;28;20044;-62
2023/08/11 05:10:52;;;;;;;23.87;16.57;;;;;;;;;;5070380;28;20238;-62
2023/08/11 05:13:18;;;;;;;19.67;15.53;;;;;;;;;;5068396;28;20106;-62
2023/08/11 05:15:44;;;;;;;18.67;16.63;;;;;;;;;;5069796;28;20406;-62
2023/08/11 05:18:10;;;;;;;19.07;15.63;;;;;;;;;;5070452;28;20053;-62
2023/08/11 05:20:36;;;;;;;25.27;15.73;;;;;;;;;;5070603;28;20040;-62
2023/08/11 05:23:03;;;;;;;22.73;15.97;;;;;;;;;;5070598;28;20059;-62
2023/08/11 05:25:29;;;;;;;21.17;16.90;;;;;;;;;;5056546;28;20052;-62
2023/08/11 05:27:55;;;;;;;21.57;15.97;;;;;;;;;;5050726;28;20044;-62
2023/08/11 05:30:24;;;;;;;19.57;15.87;;;;;;;;;;5052275;28;20049;-62
2023/08/11 05:32:50;;;;;;;18.27;15.47;;;;;;;;;;5049937;28;20048;-62
2023/08/11 05:35:17;;;;;;;21.00;14.63;;;;;;;;;;5050024;28;20491;-62
2023/08/11 05:37:43;;;;;;;20.03;14.00;;;;;;;;;;5049595;28;20049;-62
2023/08/11 05:40:09;;;;;;;17.90;14.13;;;;;;;;;;5049396;28;20617;-62
2023/08/11 05:42:35;;;;;;;17.77;13.47;;;;;;;;;;5050218;28;20040;-62
2023/08/11 05:45:02;;;;;;;15.57;13.07;;;;;;;;;;5050210;28;20395;-62
2023/08/11 05:47:28;;;;;;;16.17;12.40;;;;;;;;;;5050124;28;20407;-62
2023/08/11 05:49:54;;;;;;;15.93;12.27;;;;;;;;;;5049028;28;20110;-62
2023/08/11 05:52:20;;;;;;;14.60;11.60;;;;;;;;;;5048898;28;20045;-62
2023/08/11 05:54:46;;;;;;;17.30;12.40;;;;;;;;;;5069306;28;20052;-62
2023/08/11 05:57:12;;;;;;;11.77;10.57;;;;;;;;;;5068746;28;20053;-62
2023/08/11 05:59:38;;;;;;;12.33;10.43;;;;;;;;;;5069219;28;20575;-62
2023/08/11 06:02:04;;;;;;;12.17;9.70;;;;;;;;;;5070286;28;20163;-62
2023/08/11 06:04:30;;;;;;;15.53;10.30;;;;;;;;;;5069739;28;20049;-62
2023/08/11 06:06:56;;;;;;;12.47;9.93;;;;;;;;;;5069796;28;20422;-62
2023/08/11 06:09:22;;;;;;;14.67;10.53;;;;;;;;;;5069954;28;20055;-62
2023/08/11 06:11:48;;;;;;;15.03;10.13;;;;;;;;;;5066261;28;20052;-62
2023/08/11 06:14:14;;;;;;;14.87;9.93;;;;;;;;;;5050161;28;20493;-62
2023/08/11 06:16:40;;;;;;;12.43;9.27;;;;;;;;;;5049538;28;20044;-62
2023/08/11 06:19:06;;;;;;;17.27;9.40;;;;;;;;;;5050404;28;20112;-62
2023/08/11 06:21:32;;;;;;;12.00;9.20;;;;;;;;;;5048835;28;20476;-62
2023/08/11 06:23:58;;;;;;;11.23;8.73;;;;;;;;;;5057700;28;20066;-62
2023/08/11 06:26:24;;;;;;;10.57;9.43;;;;;;;;;;5068490;28;20045;-62
2023/08/11 06:28:50;;;;;;;13.50;9.53;;;;;;;;;;5068725;28;20032;-62
2023/08/11 06:31:19;;;;;;;12.93;9.53;;;;;;;;;;5069101;28;20037;-62
2023/08/11 06:33:45;;;;;;;13.60;9.03;;;;;;;;;;5068358;28;20057;-62
2023/08/11 06:36:11;;;;;;;13.70;9.40;;;;;;;;;;5068443;28;20552;-62
2023/08/11 06:38:37;;;;;;;15.53;8.90;;;;;;;;;;5068515;28;20098;-62
2023/08/11 06:41:03;;;;;;;13.30;8.10;;;;;;;;;;5068581;28;20054;-62
2023/08/11 06:43:29;;;;;;;11.77;8.37;;;;;;;;;;5056357;28;20064;-62
2023/08/11 06:45:56;;;;;;;10.70;8.50;;;;;;;;;;5048561;28;20048;-62
2023/08/11 06:48:22;;;;;;;10.00;7.83;;;;;;;;;;5047785;28;20574;-62
2023/08/11 06:50:48;;;;;;;15.53;9.60;;;;;;;;;;5048864;28;20076;-61
2023/08/11 06:53:14;;;;;;;15.27;8.63;;;;;;;;;;5048497;28;20466;-62
2023/08/11 06:55:40;;;;;;;12.47;8.47;;;;;;;;;;5048476;28;20041;-62
2023/08/11 06:58:06;;;;;;;10.77;8.60;;;;;;;;;;5048033;28;20055;-62
2023/08/11 07:00:32;;;;;;;13.27;7.87;;;;;;;;;;5048651;28;20491;-62
2023/08/11 07:02:58;;;;;;;10.10;8.23;;;;;;;;;;5049920;28;20044;-62
2023/08/11 07:05:24;;;;;;;8.77;7.70;;;;;;;;;;5048357;28;20110;-62
2023/08/11 07:07:49;;;;;;;10.33;7.63;;;;;;;;;;5048007;28;20048;-62
2023/08/11 07:10:16;;;;;;;12.57;7.00;;;;;;;;;;5047851;28;20045;-62
2023/08/11 07:12:42;;;;;;;8.27;6.50;;;;;;;;;;5046657;28;20040;-62
2023/08/11 07:15:08;;;;;;;8.00;5.77;;;;;;;;;;5048018;28;20059;-62
2023/08/11 07:17:34;;;;;;;9.00;5.83;;;;;;;;;;5046473;28;20103;-62
2023/08/11 07:20:00;;;;;;;7.90;6.53;;;;;;;;;;5048478;28;20045;-62
2023/08/11 07:22:26;;;;;;;9.50;5.73;;;;;;;;;;5048310;28;20136;-62
2023/08/11 07:24:52;;;;;;;9.03;5.70;;;;;;;;;;5067575;28;20051;-62
2023/08/11 07:27:18;;;;;;;9.00;5.67;;;;;;;;;;5067962;28;20491;-63
2023/08/11 07:29:44;;;;;;;9.27;5.37;;;;;;;;;;5055619;28;20052;-62
2023/08/11 07:32:10;;;;;;;8.23;5.50;;;;;;;;;;5063697;28;20130;-62
2023/08/11 07:34:38;;;;;;;10.93;6.00;;;;;;;;;;5049174;28;20041;-62
2023/08/11 07:37:04;;;;;;;7.57;5.20;;;;;;;;;;5047763;28;20056;-62
2023/08/11 07:39:30;;;;;;;9.23;5.70;;;;;;;;;;5047811;28;20170;-63
2023/08/11 07:42:02;;;;;;;7.47;4.60;;;;;;;;;;5048054;28;20461;-63
2023/08/11 07:44:30;;;;;;;9.80;5.07;;;;;;;;;;5047961;28;20064;-62
2023/08/11 07:47:00;;;;;;;11.23;5.53;;;;;;;;;;5047598;28;20051;-63
2023/08/11 07:49:27;;;;;;;8.97;4.57;;;;;;;;;;5047730;28;20063;-62
2023/08/11 07:51:53;;;;;;;6.27;4.93;;;;;;;;;;5053152;28;20040;-63
2023/08/11 07:54:19;;;;;;;7.80;5.50;;;;;;;;;;5065719;28;20056;-63
2023/08/11 07:56:45;;;;;;;7.20;4.70;;;;;;;;;;5047496;28;20135;-63
2023/08/11 07:59:11;;;;;;;7.90;5.20;;;;;;;;;;5047351;28;20136;-63
2023/08/11 08:01:37;;;;;;;8.30;5.17;;;;;;;;;;5057234;28;20387;-63
2023/08/11 08:04:04;;;;;;;7.60;4.80;;;;;;;;;;5062763;28;20049;-63
2023/08/11 08:06:30;;;;;;;8.73;4.40;;;;;;;;;;5047545;28;20522;-63
2023/08/11 08:08:56;;;;;;;6.77;4.33;;;;;;;;;;5057224;28;20044;-63
2023/08/11 08:11:23;;;;;;;7.00;4.57;;;;;;;;;;5068140;28;20405;-62
2023/08/11 08:13:49;;;;;;;5.97;3.60;;;;;;;;;;5067435;28;20090;-63
2023/08/11 08:16:15;;;;;;;10.10;5.07;;;;;;;;;;5068319;28;20053;-63
2023/08/11 08:18:41;;;;;;;6.00;3.87;;;;;;;;;;5067414;28;20075;-62
2023/08/11 08:21:07;;;;;;;4.97;3.40;;;;;;;;;;5067593;28;20048;-63
2023/08/11 08:23:33;;;;;;;8.03;4.87;;;;;;;;;;5066138;28;20245;-63
2023/08/11 08:25:59;;;;;;;8.73;4.07;;;;;;;;;;5052035;28;20062;-63
2023/08/11 08:28:25;;;;;;;9.73;4.00;;;;;;;;;;5048213;28;20041;-63
2023/08/11 08:30:51;;;;;;;7.03;4.30;;;;;;;;;;5051403;28;20056;-63
2023/08/11 08:33:17;;;;;;;6.87;3.50;;;;;;;;;;5051418;28;20053;-63
2023/08/11 08:35:43;;;;;;;6.97;3.70;;;;;;;;;;5051182;28;20533;-63
2023/08/11 08:38:09;;;;;;;6.80;3.87;;;;;;;;;;5051074;28;20088;-63
2023/08/11 08:40:36;;;;;;;6.50;3.77;;;;;;;;;;5051053;28;20044;-63
2023/08/11 08:43:03;;;;;;;7.03;3.97;;;;;;;;;;5051873;28;20049;-63
2023/08/11 08:45:30;;;;;;;7.27;3.27;;;;;;;;;;5051598;28;20056;-60
2023/08/11 08:47:58;;;;;;;6.37;3.83;;;;;;;;;;5051429;28;20048;-60
2023/08/11 08:50:24;;;;;;;10.07;3.88;;;;;;;;;;5050458;28;20121;-60
2023/08/11 08:52:51;;;;;;;9.18;3.72;;;;;;;;;;5067490;28;20044;-60
2023/08/11 08:55:17;;;;;;;5.95;3.13;;;27.80;99.90;;;;;;5071514;28;20048;-60
2023/08/11 08:57:43;;;;;;;7.25;3.78;;;;;;;;;;5070855;28;20125;-60
2023/08/11 09:00:09;;;;;;;6.82;3.25;;;29.70;99.90;;;;;;5070932;28;20123;-62
2023/08/11 09:02:36;;;;;;;6.30;4.15;;;29.90;99.90;;;;;;5071014;28;20049;-62
2023/08/11 09:05:02;;;;;;;7.15;3.22;;;30.20;99.90;;;;;;5070862;28;20040;-62
2023/08/11 09:07:27;;;;;;;7.25;4.10;;;30.70;99.90;;;;;;5070736;28;20037;-62
2023/08/11 09:09:53;;;;;;;5.13;3.28;;;30.40;99.90;;;;;;5070842;28;20056;-62
2023/08/11 09:12:18;;;;;;;8.10;3.60;;;30.00;99.90;;;;;;5070810;28;20041;-63
2023/08/11 09:14:44;;;;;;;11.20;3.40;;;30.10;99.90;;;;;;5070565;28;20036;-63
2023/08/11 09:17:10;;;;;;;7.03;3.97;;;30.30;99.90;;;;;;5070463;28;20044;-63
2023/08/11 09:19:37;;;;;;;6.75;3.78;;;30.60;99.90;;;;;;5070942;28;20457;-62
2023/08/11 09:22:09;;;;;;;5.40;3.72;;;31.10;99.90;;;;;;5059955;28;20056;-62
2023/08/11 09:24:34;;;;;;;7.65;3.67;;;31.10;99.90;;;;;;5050426;28;20396;-62
2023/08/11 09:27:00;;;;;;;7.85;3.85;;;31.30;99.90;;;;;;5050383;28;20095;-63
2023/08/11 09:29:26;;;;;;;6.80;3.05;;;;;;;;;;5050348;28;20047;-62
2023/08/11 09:31:56;;;;;;;11.27;4.45;;;;;;;;;;5050585;28;20345;-62
2023/08/11 09:34:22;;;;;;;6.88;3.33;;;;;;;;;;5049581;28;20060;-62
2023/08/11 09:36:48;;;;;;;7.60;3.38;;;;;;;;;;5050649;28;20048;-63
2023/08/11 09:39:15;;;;;;;6.47;2.97;;;;;;;;;;5049758;28;20053;-62
2023/08/11 09:41:44;;;;;;;9.98;3.30;;;;;;;;;;5062769;28;20044;-63
2023/08/11 09:44:19;;;;;;;6.03;3.00;;;;;;;;;;5050179;28;20052;-63
2023/08/11 09:46:47;;;;;;;6.68;3.33;;;;;;;;;;5050507;28;20099;-63
2023/08/11 09:49:13;;;;;;;6.53;3.33;;;;;;;;;;5049876;28;20041;-63
2023/08/11 09:51:40;;;;;;;11.55;3.17;;;;;;;;;;5056896;28;20044;-62
2023/08/11 09:54:08;;;;;;;8.65;3.60;;;;;;;;;;5069619;28;20067;-63
2023/08/11 09:56:36;;;;;;;6.03;3.30;;;;;;;;;;5069467;28;20049;-63
2023/08/11 09:59:06;;;;;;;7.32;3.83;;;;;;;;;;5069746;28;20048;-63
2023/08/11 10:01:36;;;;;;;5.10;3.08;;;;;;;;;;5069533;28;20044;-63
2023/08/11 10:04:07;;;;;;;5.93;3.58;;;;;;;;;;5070029;28;20064;-63
2023/08/11 10:06:36;;;;;;;7.82;3.20;;;;;;;;;;5069242;28;20056;-63
2023/08/11 10:09:03;;;;;;;4.88;2.80;;;;;;;;;;5070000;28;20152;-63
2023/08/11 10:11:29;;;;;;;6.90;3.33;;;;;;;;;;5070227;28;20037;-63
2023/08/11 10:13:56;;;;;;;7.35;2.70;;;;;;;;;;5070040;28;20106;-63
2023/08/11 10:16:23;;;;;;;4.38;2.08;;;;;;;;;;5069545;28;20040;-63
2023/08/11 10:18:49;;;;;;;5.93;2.85;;;;;;;;;;5068025;28;20518;-63
2023/08/11 10:21:15;;;;;;;4.82;2.38;;;;;;;;;;5052431;28;20048;-63
2023/08/11 10:23:41;;;;;;;5.53;3.00;;;;;;;;;;5049195;28;20106;-63
2023/08/11 10:26:08;;;;;;;6.75;3.05;;;;;;;;;;5050742;28;20052;-63
2023/08/11 10:28:34;;;;;;;6.22;3.03;;;;;;;;;;5067180;28;20056;-63
2023/08/11 10:31:02;;;;;;;6.10;2.88;;;;;;;;;;5047908;28;20044;-63
2023/08/11 10:33:31;;;;;;;7.03;3.08;;;;;;;;;;5049755;28;20426;-64
2023/08/11 10:35:58;;;;;;;5.13;2.75;;;;;;;;;;5056780;28;20079;-63
2023/08/11 10:38:26;;;;;;;8.77;3.35;;;;;;;;;;5064721;28;20098;-63
2023/08/11 10:40:57;;;;;;;3.38;2.28;;;;;;;;;;5060840;28;20033;-63
2023/08/11 10:43:28;;;;;;;6.53;3.25;;;;;;;;;;5058537;28;20058;-63
2023/08/11 10:45:54;;;;;;;5.47;2.70;;;;;;;;;;5068895;28;20066;-62
2023/08/11 10:48:25;;;;;;;4.15;2.40;;;;;;;;;;5070666;28;20048;-63
2023/08/11 10:50:51;;;;;;;6.82;2.53;;;;;;;;;;5049859;28;20410;-63
2023/08/11 10:53:21;;;;;;;4.53;2.63;;;;;;;;;;5048724;28;20045;-63
2023/08/11 10:56:03;;;;;;;7.60;3.22;;;;;;;;;;5049673;28;20063;-63
2023/08/11 10:58:32;;;;;;;7.30;2.50;;;;;;;;;;5052945;28;20170;-63
2023/08/11 11:00:59;;;;;;;6.30;2.92;;;;;;;;;;5069334;28;20052;-63
2023/08/11 11:03:25;;;;;;;7.45;3.17;;;;;;;;;;5049359;28;20037;-63
2023/08/11 11:05:52;;;;;;;4.85;3.03;;;;;;;;;;5064968;28;20044;-63
2023/08/11 11:08:18;;;;;;;5.00;3.10;;;;;;;;;;5068542;28;20094;-63
2023/08/11 11:10:44;;;;;;;7.47;2.72;;;;;;;;;;5066367;28;20449;-63
2023/08/11 11:13:10;;;;;;;4.28;2.60;;;;;;;;;;5048955;28;20045;-63
2023/08/11 11:15:36;;;;;;;6.57;3.05;;;;;;;;;;5048860;28;20040;-63
2023/08/11 11:18:02;;;;;;;6.97;2.70;;;;;;;;;;5048990;28;20124;-63
2023/08/11 11:20:28;;;;;;;4.38;2.85;;;;;;;;;;5048548;28;20052;-63
2023/08/11 11:22:55;;;;;;;6.13;2.45;;;;;;;;;;5057114;28;20052;-63
2023/08/11 11:25:21;;;;;;;6.32;2.67;;;;;;;;;;5068448;28;20608;-63
2023/08/11 11:27:48;;;;;;;6.25;3.25;;;;;;;;;;5065978;28;20052;-63
2023/08/11 11:30:14;;;;;;;6.25;2.58;;;;;;;;;;5062375;28;20673;-63
2023/08/11 11:32:41;;;;;;;5.25;2.53;;;;;;;;;;5067924;28;20075;-63
2023/08/11 11:35:10;;;;;;;5.38;2.53;;;;;;;;;;5062081;28;20198;-63
2023/08/11 11:37:36;;;;;;;6.78;2.78;;;;;;;;;;5048623;28;20052;-63
2023/08/11 11:40:06;;;;;;;5.00;2.25;;;;;;;;;;5048953;28;20038;-63
2023/08/11 11:42:34;;;;;;;5.07;2.33;;;;;;;;;;5048191;28;20095;-62
2023/08/11 11:45:00;;;;;;;3.88;2.83;;;;;;;;;;5054765;28;20037;-63
2023/08/11 11:47:26;;;;;;;6.38;2.90;;;;;;;;;;5057868;28;20052;-63
2023/08/11 11:49:56;;;;;;;5.68;2.47;;;;;;;;;;5062283;28;20090;-63
2023/08/11 11:52:22;;;;;;;6.85;2.65;;;;;;;;;;5051373;28;20041;-63
2023/08/11 11:54:52;;;;;;;6.95;2.97;;;;;;;;;;5052232;28;20045;-63
2023/08/11 11:57:18;;;;;;;7.05;2.83;;;;;;;;;;5047804;28;20064;-63
2023/08/11 11:59:49;;;;;;;8.52;3.17;;;;;;;;;;5053705;28;20062;-63
2023/08/11 12:02:15;;;;;;;7.55;2.70;;;;;;;;;;5061536;28;20446;-63
2023/08/11 12:04:45;;;;;;;6.35;2.50;;;;;;;;;;5060285;28;20054;-63
2023/08/11 12:07:30;;;;;;;4.07;2.28;;;;;;;;;;5058034;28;20072;-63
2023/08/11 12:09:56;;;;;;;7.78;2.75;;;;;;;;;;5048489;28;20049;-63
2023/08/11 12:12:25;;;;;;;4.60;3.03;;;;;;;;;;5048283;28;20049;-63
2023/08/11 12:14:52;;;;;;;5.43;2.70;;;;;;;;;;5052955;28;20045;-63
2023/08/11 12:17:18;;;;;;;4.72;2.65;;;;;;;;;;5046149;28;20037;-63
2023/08/11 12:19:46;;;;;;;5.43;2.53;;;;;;;;;;5046579;28;20041;-61
2023/08/11 12:22:12;;;;;;;4.40;2.65;;;;;;;;;;5046518;28;20079;-61
2023/08/11 12:24:38;;;;;;;5.93;3.08;;;;;;;;;;5046236;28;20052;-61
2023/08/11 12:27:05;;;;;;;6.28;2.83;;;;;;;;;;5045805;28;20078;-62
2023/08/11 12:29:31;;;;;;;5.82;3.00;;;;;;;;;;5046219;28;20084;-61
2023/08/11 12:31:57;;;;;;;3.17;2.22;;;;;;;;;;5047036;28;20068;-61
2023/08/11 12:34:23;;;;;;;4.30;2.70;;;;;;;;;;5047207;28;20064;-61
2023/08/11 12:36:50;;;;;;;5.60;2.70;;;;;;;;;;5048056;28;20041;-61
2023/08/11 12:39:16;;;;;;;4.90;2.85;;;;;;;;;;5047860;28;20045;-61
2023/08/11 12:41:42;;;;;;;6.07;2.58;;;;;;;;;;5047153;28;20245;-61
2023/08/11 12:44:09;;;;;;;4.88;3.00;;;;;;;;;;5047906;28;20075;-61
2023/08/11 12:46:36;;;;;;;4.25;2.33;;;;;;;;;;5047579;28;20056;-61
2023/08/11 12:49:02;;;;;;;4.78;2.65;;;;;;;;;;5047281;28;20056;-61
2023/08/11 12:51:28;;;;;;;6.70;2.88;;;;;;;;;;5047889;28;20052;-61
2023/08/11 12:53:54;;;;;;;3.30;2.50;;;;;;;;;;5047989;28;20040;-61
2023/08/11 12:56:20;;;;;;;5.65;2.67;;;;;;;;;;5047049;28;20063;-61
2023/08/11 12:58:46;;;;;;;6.03;3.20;;;;;;;;;;5047804;28;20052;-61
2023/08/11 13:01:14;;;;;;;8.68;3.25;;;;;;;;;;5047348;28;20053;-61
2023/08/11 13:03:40;;;;;;;7.85;2.92;;;;;;;;;;5047166;28;20045;-61
2023/08/11 13:06:06;;;;;;;5.00;2.65;;;;;;;;;;5047284;28;20388;-63
2023/08/11 13:08:32;;;;;;;6.28;2.60;;;;;;;;;;5047433;28;20044;-63
2023/08/11 13:10:58;;;;;;;5.25;2.78;;;;;;;;;;5047373;28;20049;-63
2023/08/11 13:13:24;;;;;;;5.93;2.78;;;;;;;;;;5047689;28;20566;-63
2023/08/11 13:15:50;;;;;;;8.85;2.70;;;;;;;;;;5049439;28;20124;-63
2023/08/11 13:18:16;;;;;;;6.78;2.95;;;;;;;;;;5050773;28;20071;-63
2023/08/11 13:20:42;;;;;;;4.22;2.40;;;;;;;;;;5050988;28;20499;-63
2023/08/11 13:23:08;;;;;;;7.95;2.47;;;;;;;;;;5051044;28;20053;-63
2023/08/11 13:25:35;;;;;;;4.65;2.30;;;;;;;;;;5051203;28;20580;-63
2023/08/11 13:28:01;;;;;;;6.70;2.90;;;;;;;;;;5051048;28;20053;-63
2023/08/11 13:30:30;;;;;;;6.22;2.75;;;;;;;;;;5051112;28;20049;-63
2023/08/11 13:32:56;;;;;;;4.63;2.72;;;;;;;;;;5051596;28;20426;-61
2023/08/11 13:35:22;;;;;;;5.25;2.63;;;;;;;;;;5051469;28;20570;-61
2023/08/11 13:37:48;;;;;;;4.68;2.60;;;;;;;;;;5051849;28;20041;-61
2023/08/11 13:40:14;;;;;;;3.55;2.50;;;;;;;;;;5051317;28;20041;-61
2023/08/11 13:42:40;;;;;;;6.38;2.70;;;;;;;;;;5051564;28;20045;-61
2023/08/11 13:45:07;;;;;;;6.03;2.60;;;;;;;;;;5051751;28;20435;-61
2023/08/11 13:47:33;;;;;;;3.53;2.25;;;;;;;;;;5051463;28;20052;-61
2023/08/11 13:49:59;;;;;;;5.72;2.35;;;;;;;;;;5051329;28;20063;-61
2023/08/11 13:52:25;;;;;;;6.90;2.55;;;;;;;;;;5050810;28;20499;-61
2023/08/11 13:55:01;;;;;;;5.38;2.72;;;;;;;;;;5051389;28;20076;-61
2023/08/11 13:57:27;;;;;;;4.47;2.55;;;;;;;;;;5051144;28;20563;-61
2023/08/11 13:59:57;;;;;;;6.28;2.80;;;;;;;;;;5051435;28;20036;-61
2023/08/11 14:02:25;;;;;;;6.10;2.17;;;;;;;;;;5050437;28;20551;-61
2023/08/11 14:04:51;;;;;;;8.68;2.40;;;;;;;;;;5051013;28;20667;-61
2023/08/11 14:07:17;;;;;;;6.70;2.70;;;;;;;;;;5050901;28;20083;-61
2023/08/11 14:09:43;;;;;;;6.57;3.50;;;;;;;;;;5051049;28;20558;-61
2023/08/11 14:12:09;;;;;;;6.45;2.63;;;;;;;;;;5051005;28;20538;-61
2023/08/11 14:14:36;;;;;;;5.70;2.60;;;;;;;;;;5050488;28;20480;-61
2023/08/11 14:17:02;;;;;;;4.53;2.65;;;;;;;;;;5050988;28;20073;-61
2023/08/11 14:19:28;;;;;;;4.20;2.20;;;;;;;;;;5050910;28;20059;-61
2023/08/11 14:21:54;;;;;;;3.88;2.35;;;;;;;;;;5050306;28;20045;-61
2023/08/11 14:24:20;;;;;;;3.70;2.58;;;;;;;;;;5050810;28;20064;-61